sensor_id;sensor_type;location;lat;lon;timestamp;P1;durP1;ratioP1;P2;durP2;ratioP2
69636;SDS011;56860;51.144;16.954;2024-02-04T00:00:13;3.0;;;3.6;;
69636;SDS011;56860;51.144;16.954;2024-02-04T00:01:13;3.0;;;3.6;;
69636;SDS011;56860;51.144;16.954;2024-02-04T00:02:13;3.0;;;3.2;;
69636;SDS011;56860;51.144;16.954;2024-02-04T00:03:13;2.9;;;3.1;;
69636;SDS011;56860;51.144;16.954;2024-02-04T00:04:13;2.9;;;3.1;;
69636;SDS011;56860;51.144;16.954;2024-02-04T00:05:13;2.6;;;2.8;;
69636;SDS011;56860;51.144;16.954;2024-02-04T00:06:13;3.0;;;3.3;;
69636;SDS011;56860;51.144;16.954;2024-02-04T00:07:13;3.0;;;3.3;;
69636;SDS011;56860;51.144;16.954;2024-02-04T00:08:13;3.0;;;3.3;;
69636;SDS011;56860;51.144;16.954;2024-02-04T00:09:13;2.6;;;2.9;;
69636;SDS011;56860;51.144;16.954;2024-02-04T00:10:13;2.6;;;2.9;;
69636;SDS011;56860;51.144;16.954;2024-02-04T00:11:13;2.6;;;2.9;;
69636;SDS011;56860;51.144;16.954;2024-02-04T00:12:13;2.8;;;3.1;;
69636;SDS011;56860;51.144;16.954;2024-02-04T00:13:13;2.8;;;3.1;;
69636;SDS011;56860;51.144;16.954;2024-02-04T00:14:13;2.8;;;3.1;;
69636;SDS011;56860;51.144;16.954;2024-02-04T00:15:13;2.9;;;3.1;;
69636;SDS011;56860;51.144;16.954;2024-02-04T00:16:13;2.9;;;3.1;;
69636;SDS011;56860;51.144;16.954;2024-02-04T00:17:13;2.9;;;3.1;;
69636;SDS011;56860;51.144;16.954;2024-02-04T00:18:13;2.5;;;2.7;;
69636;SDS011;56860;51.144;16.954;2024-02-04T00:19:13;2.5;;;2.7;;
69636;SDS011;56860;51.144;16.954;2024-02-04T00:20:13;2.5;;;2.7;;
69636;SDS011;56860;51.144;16.954;2024-02-04T00:21:13;2.5;;;3.4;;
69636;SDS011;56860;51.144;16.954;2024-02-04T00:22:13;2.5;;;3.4;;
69636;SDS011;56860;51.144;16.954;2024-02-04T00:23:13;2.5;;;3.4;;
69636;SDS011;56860;51.144;16.954;2024-02-04T00:24:13;2.5;;;2.7;;
69636;SDS011;56860;51.144;16.954;2024-02-04T00:25:13;2.5;;;2.7;;
69636;SDS011;56860;51.144;16.954;2024-02-04T00:26:13;2.5;;;2.7;;
69636;SDS011;56860;51.144;16.954;2024-02-04T00:27:13;2.5;;;2.7;;
69636;SDS011;56860;51.144;16.954;2024-02-04T00:28:13;2.5;;;2.7;;
69636;SDS011;56860;51.144;16.954;2024-02-04T00:29:13;2.5;;;2.7;;
69636;SDS011;56860;51.144;16.954;2024-02-04T00:30:13;2.3;;;2.9;;
69636;SDS011;56860;51.144;16.954;2024-02-04T00:31:13;2.3;;;2.9;;
69636;SDS011;56860;51.144;16.954;2024-02-04T00:32:13;2.3;;;2.9;;
69636;SDS011;56860;51.144;16.954;2024-02-04T00:33:13;2.6;;;2.8;;
69636;SDS011;56860;51.144;16.954;2024-02-04T00:34:13;2.6;;;2.8;;
69636;SDS011;56860;51.144;16.954;2024-02-04T00:35:13;2.6;;;2.8;;
69636;SDS011;56860;51.144;16.954;2024-02-04T00:36:13;2.6;;;2.9;;
69636;SDS011;56860;51.144;16.954;2024-02-04T00:37:13;2.6;;;2.9;;
69636;SDS011;56860;51.144;16.954;2024-02-04T00:38:13;2.6;;;2.9;;
69636;SDS011;56860;51.144;16.954;2024-02-04T00:39:13;2.6;;;2.9;;
69636;SDS011;56860;51.144;16.954;2024-02-04T00:40:13;2.6;;;2.9;;
69636;SDS011;56860;51.144;16.954;2024-02-04T00:41:13;2.6;;;2.9;;
69636;SDS011;56860;51.144;16.954;2024-02-04T00:42:13;2.9;;;3.0;;
69636;SDS011;56860;51.144;16.954;2024-02-04T00:43:13;2.7;;;4.0;;
69636;SDS011;56860;51.144;16.954;2024-02-04T00:44:13;2.7;;;4.0;;
69636;SDS011;56860;51.144;16.954;2024-02-04T00:45:13;2.7;;;4.0;;
69636;SDS011;56860;51.144;16.954;2024-02-04T00:46:13;2.4;;;2.6;;
69636;SDS011;56860;51.144;16.954;2024-02-04T00:47:13;2.4;;;2.6;;
69636;SDS011;56860;51.144;16.954;2024-02-04T00:48:13;2.4;;;2.6;;
69636;SDS011;56860;51.144;16.954;2024-02-04T00:49:13;2.5;;;2.7;;
69636;SDS011;56860;51.144;16.954;2024-02-04T00:50:13;2.5;;;2.7;;
69636;SDS011;56860;51.144;16.954;2024-02-04T00:51:13;2.5;;;2.7;;
69636;SDS011;56860;51.144;16.954;2024-02-04T00:52:13;2.7;;;3.0;;
69636;SDS011;56860;51.144;16.954;2024-02-04T00:53:13;2.7;;;3.0;;
69636;SDS011;56860;51.144;16.954;2024-02-04T00:54:13;2.7;;;3.0;;
69636;SDS011;56860;51.144;16.954;2024-02-04T00:55:13;2.9;;;3.1;;
69636;SDS011;56860;51.144;16.954;2024-02-04T00:56:13;2.9;;;3.1;;
69636;SDS011;56860;51.144;16.954;2024-02-04T00:57:13;2.9;;;3.1;;
69636;SDS011;56860;51.144;16.954;2024-02-04T00:58:13;2.8;;;3.3;;
69636;SDS011;56860;51.144;16.954;2024-02-04T00:59:13;2.8;;;3.3;;
69636;SDS011;56860;51.144;16.954;2024-02-04T01:00:13;2.8;;;3.3;;
69636;SDS011;56860;51.144;16.954;2024-02-04T01:01:13;2.9;;;3.7;;
69636;SDS011;56860;51.144;16.954;2024-02-04T01:02:13;2.9;;;3.7;;
69636;SDS011;56860;51.144;16.954;2024-02-04T01:03:13;2.9;;;3.7;;
69636;SDS011;56860;51.144;16.954;2024-02-04T01:04:13;2.7;;;2.9;;
69636;SDS011;56860;51.144;16.954;2024-02-04T01:05:13;2.7;;;2.9;;
69636;SDS011;56860;51.144;16.954;2024-02-04T01:06:13;2.7;;;2.9;;
69636;SDS011;56860;51.144;16.954;2024-02-04T01:07:13;2.7;;;3.0;;
69636;SDS011;56860;51.144;16.954;2024-02-04T01:08:13;2.7;;;3.0;;
69636;SDS011;56860;51.144;16.954;2024-02-04T01:09:13;2.7;;;3.0;;
69636;SDS011;56860;51.144;16.954;2024-02-04T01:10:13;2.6;;;2.8;;
69636;SDS011;56860;51.144;16.954;2024-02-04T01:11:13;2.6;;;2.8;;
69636;SDS011;56860;51.144;16.954;2024-02-04T01:12:13;2.6;;;2.8;;
69636;SDS011;56860;51.144;16.954;2024-02-04T01:13:13;2.8;;;3.0;;
69636;SDS011;56860;51.144;16.954;2024-02-04T01:14:13;2.8;;;3.0;;
69636;SDS011;56860;51.144;16.954;2024-02-04T01:15:13;2.8;;;3.0;;
69636;SDS011;56860;51.144;16.954;2024-02-04T01:16:13;2.8;;;3.1;;
69636;SDS011;56860;51.144;16.954;2024-02-04T01:17:13;2.7;;;3.4;;
69636;SDS011;56860;51.144;16.954;2024-02-04T01:18:13;2.7;;;3.4;;
69636;SDS011;56860;51.144;16.954;2024-02-04T01:19:13;2.7;;;3.4;;
69636;SDS011;56860;51.144;16.954;2024-02-04T01:20:13;2.9;;;3.1;;
69636;SDS011;56860;51.144;16.954;2024-02-04T01:21:13;2.9;;;3.1;;
69636;SDS011;56860;51.144;16.954;2024-02-04T01:22:13;2.9;;;3.1;;
69636;SDS011;56860;51.144;16.954;2024-02-04T01:23:13;3.1;;;4.2;;
69636;SDS011;56860;51.144;16.954;2024-02-04T01:24:13;3.1;;;4.2;;
69636;SDS011;56860;51.144;16.954;2024-02-04T01:25:13;3.1;;;4.2;;
69636;SDS011;56860;51.144;16.954;2024-02-04T01:26:13;2.9;;;3.9;;
69636;SDS011;56860;51.144;16.954;2024-02-04T01:27:13;2.9;;;3.9;;
69636;SDS011;56860;51.144;16.954;2024-02-04T01:28:13;2.9;;;3.9;;
69636;SDS011;56860;51.144;16.954;2024-02-04T01:29:13;3.1;;;3.4;;
69636;SDS011;56860;51.144;16.954;2024-02-04T01:30:13;3.1;;;3.4;;
69636;SDS011;56860;51.144;16.954;2024-02-04T01:31:13;3.1;;;3.4;;
69636;SDS011;56860;51.144;16.954;2024-02-04T01:32:13;3.0;;;3.3;;
69636;SDS011;56860;51.144;16.954;2024-02-04T01:33:13;3.0;;;3.3;;
69636;SDS011;56860;51.144;16.954;2024-02-04T01:34:13;3.0;;;3.3;;
69636;SDS011;56860;51.144;16.954;2024-02-04T01:35:13;3.2;;;3.5;;
69636;SDS011;56860;51.144;16.954;2024-02-04T01:36:13;3.2;;;3.5;;
69636;SDS011;56860;51.144;16.954;2024-02-04T01:37:13;3.2;;;3.5;;
69636;SDS011;56860;51.144;16.954;2024-02-04T01:38:13;2.9;;;3.3;;
69636;SDS011;56860;51.144;16.954;2024-02-04T01:39:13;2.9;;;3.3;;
69636;SDS011;56860;51.144;16.954;2024-02-04T01:40:13;2.9;;;3.3;;
69636;SDS011;56860;51.144;16.954;2024-02-04T01:41:13;3.3;;;3.7;;
69636;SDS011;56860;51.144;16.954;2024-02-04T01:42:13;3.3;;;3.7;;
69636;SDS011;56860;51.144;16.954;2024-02-04T01:43:13;3.3;;;3.7;;
69636;SDS011;56860;51.144;16.954;2024-02-04T01:44:13;2.9;;;3.2;;
69636;SDS011;56860;51.144;16.954;2024-02-04T01:45:13;2.9;;;3.2;;
69636;SDS011;56860;51.144;16.954;2024-02-04T01:46:13;2.9;;;3.2;;
69636;SDS011;56860;51.144;16.954;2024-02-04T01:47:13;3.2;;;4.6;;
69636;SDS011;56860;51.144;16.954;2024-02-04T01:48:13;3.2;;;4.6;;
69636;SDS011;56860;51.144;16.954;2024-02-04T01:49:13;3.2;;;4.6;;
69636;SDS011;56860;51.144;16.954;2024-02-04T01:50:13;3.2;;;3.5;;
69636;SDS011;56860;51.144;16.954;2024-02-04T01:51:13;3.2;;;3.5;;
69636;SDS011;56860;51.144;16.954;2024-02-04T01:52:13;3.2;;;3.5;;
69636;SDS011;56860;51.144;16.954;2024-02-04T01:53:13;3.3;;;3.7;;
69636;SDS011;56860;51.144;16.954;2024-02-04T01:54:14;3.3;;;3.7;;
69636;SDS011;56860;51.144;16.954;2024-02-04T01:55:13;3.3;;;3.7;;
69636;SDS011;56860;51.144;16.954;2024-02-04T01:56:13;3.3;;;3.8;;
69636;SDS011;56860;51.144;16.954;2024-02-04T01:57:13;3.3;;;4.1;;
69636;SDS011;56860;51.144;16.954;2024-02-04T01:58:13;3.3;;;4.1;;
69636;SDS011;56860;51.144;16.954;2024-02-04T01:59:13;3.3;;;4.1;;
69636;SDS011;56860;51.144;16.954;2024-02-04T02:00:13;3.2;;;3.8;;
69636;SDS011;56860;51.144;16.954;2024-02-04T02:01:13;3.2;;;3.8;;
69636;SDS011;56860;51.144;16.954;2024-02-04T02:02:13;3.2;;;3.8;;
69636;SDS011;56860;51.144;16.954;2024-02-04T02:03:13;3.0;;;3.5;;
69636;SDS011;56860;51.144;16.954;2024-02-04T02:04:13;3.0;;;3.5;;
69636;SDS011;56860;51.144;16.954;2024-02-04T02:05:13;3.0;;;3.5;;
69636;SDS011;56860;51.144;16.954;2024-02-04T02:06:14;3.2;;;3.9;;
69636;SDS011;56860;51.144;16.954;2024-02-04T02:07:13;3.2;;;3.9;;
69636;SDS011;56860;51.144;16.954;2024-02-04T02:08:13;3.2;;;3.9;;
69636;SDS011;56860;51.144;16.954;2024-02-04T02:09:13;3.1;;;4.0;;
69636;SDS011;56860;51.144;16.954;2024-02-04T02:10:13;3.1;;;4.0;;
69636;SDS011;56860;51.144;16.954;2024-02-04T02:11:17;3.1;;;4.0;;
69636;SDS011;56860;51.144;16.954;2024-02-04T02:12:14;3.2;;;3.4;;
69636;SDS011;56860;51.144;16.954;2024-02-04T02:13:14;3.2;;;3.4;;
69636;SDS011;56860;51.144;16.954;2024-02-04T02:14:14;3.2;;;3.4;;
69636;SDS011;56860;51.144;16.954;2024-02-04T02:15:14;3.1;;;3.5;;
69636;SDS011;56860;51.144;16.954;2024-02-04T02:16:14;3.1;;;3.5;;
69636;SDS011;56860;51.144;16.954;2024-02-04T02:17:14;3.1;;;3.5;;
69636;SDS011;56860;51.144;16.954;2024-02-04T02:18:14;3.1;;;3.4;;
69636;SDS011;56860;51.144;16.954;2024-02-04T02:19:17;3.0;;;3.2;;
69636;SDS011;56860;51.144;16.954;2024-02-04T02:20:15;3.0;;;3.2;;
69636;SDS011;56860;51.144;16.954;2024-02-04T02:21:16;3.4;;;4.4;;
69636;SDS011;56860;51.144;16.954;2024-02-04T02:22:16;3.3;;;3.8;;
69636;SDS011;56860;51.144;16.954;2024-02-04T02:23:14;3.3;;;3.8;;
69636;SDS011;56860;51.144;16.954;2024-02-04T02:24:14;3.3;;;3.8;;
69636;SDS011;56860;51.144;16.954;2024-02-04T02:25:14;3.1;;;3.8;;
69636;SDS011;56860;51.144;16.954;2024-02-04T02:26:13;3.1;;;3.8;;
69636;SDS011;56860;51.144;16.954;2024-02-04T02:27:13;3.1;;;3.8;;
69636;SDS011;56860;51.144;16.954;2024-02-04T02:28:13;3.0;;;3.4;;
69636;SDS011;56860;51.144;16.954;2024-02-04T02:29:13;3.0;;;3.4;;
69636;SDS011;56860;51.144;16.954;2024-02-04T02:30:13;3.0;;;3.4;;
69636;SDS011;56860;51.144;16.954;2024-02-04T02:31:13;3.2;;;3.6;;
69636;SDS011;56860;51.144;16.954;2024-02-04T02:32:13;3.2;;;3.6;;
69636;SDS011;56860;51.144;16.954;2024-02-04T02:33:13;3.2;;;3.6;;
69636;SDS011;56860;51.144;16.954;2024-02-04T02:36:14;3.3;;;3.6;;
69636;SDS011;56860;51.144;16.954;2024-02-04T02:36:20;3.3;;;3.6;;
69636;SDS011;56860;51.144;16.954;2024-02-04T02:37:18;3.7;;;4.6;;
69636;SDS011;56860;51.144;16.954;2024-02-04T02:38:18;3.7;;;4.6;;
69636;SDS011;56860;51.144;16.954;2024-02-04T02:39:15;3.7;;;4.6;;
69636;SDS011;56860;51.144;16.954;2024-02-04T02:40:16;3.8;;;4.1;;
69636;SDS011;56860;51.144;16.954;2024-02-04T02:41:13;3.8;;;4.2;;
69636;SDS011;56860;51.144;16.954;2024-02-04T02:42:13;3.8;;;4.2;;
69636;SDS011;56860;51.144;16.954;2024-02-04T02:43:13;3.8;;;4.2;;
69636;SDS011;56860;51.144;16.954;2024-02-04T02:44:13;3.7;;;4.0;;
69636;SDS011;56860;51.144;16.954;2024-02-04T02:45:13;3.7;;;4.0;;
69636;SDS011;56860;51.144;16.954;2024-02-04T02:46:13;3.7;;;4.0;;
69636;SDS011;56860;51.144;16.954;2024-02-04T02:47:13;3.7;;;4.1;;
69636;SDS011;56860;51.144;16.954;2024-02-04T02:48:13;3.7;;;4.1;;
69636;SDS011;56860;51.144;16.954;2024-02-04T02:49:13;3.7;;;4.1;;
69636;SDS011;56860;51.144;16.954;2024-02-04T02:50:13;3.7;;;4.1;;
69636;SDS011;56860;51.144;16.954;2024-02-04T02:51:13;3.7;;;4.1;;
69636;SDS011;56860;51.144;16.954;2024-02-04T02:52:13;3.7;;;4.1;;
69636;SDS011;56860;51.144;16.954;2024-02-04T02:53:13;3.1;;;3.3;;
69636;SDS011;56860;51.144;16.954;2024-02-04T02:54:13;3.1;;;3.3;;
69636;SDS011;56860;51.144;16.954;2024-02-04T02:55:13;3.1;;;3.3;;
69636;SDS011;56860;51.144;16.954;2024-02-04T02:56:13;3.6;;;3.9;;
69636;SDS011;56860;51.144;16.954;2024-02-04T02:57:13;3.6;;;3.9;;
69636;SDS011;56860;51.144;16.954;2024-02-04T02:58:14;3.6;;;3.9;;
69636;SDS011;56860;51.144;16.954;2024-02-04T02:59:13;3.4;;;3.7;;
69636;SDS011;56860;51.144;16.954;2024-02-04T03:00:14;3.4;;;3.7;;
69636;SDS011;56860;51.144;16.954;2024-02-04T03:01:13;3.4;;;3.7;;
69636;SDS011;56860;51.144;16.954;2024-02-04T03:02:15;3.1;;;4.1;;
69636;SDS011;56860;51.144;16.954;2024-02-04T03:03:13;3.1;;;4.1;;
69636;SDS011;56860;51.144;16.954;2024-02-04T03:04:13;3.1;;;4.1;;
69636;SDS011;56860;51.144;16.954;2024-02-04T03:05:15;3.1;;;3.9;;
69636;SDS011;56860;51.144;16.954;2024-02-04T03:06:13;3.1;;;3.9;;
69636;SDS011;56860;51.144;16.954;2024-02-04T03:07:13;3.1;;;3.9;;
69636;SDS011;56860;51.144;16.954;2024-02-04T03:08:13;3.1;;;3.4;;
69636;SDS011;56860;51.144;16.954;2024-02-04T03:09:13;3.2;;;3.6;;
69636;SDS011;56860;51.144;16.954;2024-02-04T03:10:13;3.2;;;3.6;;
69636;SDS011;56860;51.144;16.954;2024-02-04T03:11:13;3.2;;;3.6;;
69636;SDS011;56860;51.144;16.954;2024-02-04T03:12:13;3.0;;;3.7;;
69636;SDS011;56860;51.144;16.954;2024-02-04T03:13:13;3.0;;;3.7;;
69636;SDS011;56860;51.144;16.954;2024-02-04T03:14:14;3.0;;;3.7;;
69636;SDS011;56860;51.144;16.954;2024-02-04T03:15:13;2.8;;;3.5;;
69636;SDS011;56860;51.144;16.954;2024-02-04T03:16:13;2.8;;;3.5;;
69636;SDS011;56860;51.144;16.954;2024-02-04T03:17:13;2.8;;;3.5;;
69636;SDS011;56860;51.144;16.954;2024-02-04T03:18:13;2.9;;;3.8;;
69636;SDS011;56860;51.144;16.954;2024-02-04T03:19:14;2.9;;;3.8;;
69636;SDS011;56860;51.144;16.954;2024-02-04T03:20:13;2.9;;;3.8;;
69636;SDS011;56860;51.144;16.954;2024-02-04T03:21:13;2.8;;;3.1;;
69636;SDS011;56860;51.144;16.954;2024-02-04T03:22:13;2.8;;;3.1;;
69636;SDS011;56860;51.144;16.954;2024-02-04T03:23:13;2.8;;;3.1;;
69636;SDS011;56860;51.144;16.954;2024-02-04T03:24:13;2.8;;;3.2;;
69636;SDS011;56860;51.144;16.954;2024-02-04T03:25:14;2.8;;;3.2;;
69636;SDS011;56860;51.144;16.954;2024-02-04T03:26:16;2.8;;;3.2;;
69636;SDS011;56860;51.144;16.954;2024-02-04T03:27:13;3.0;;;3.2;;
69636;SDS011;56860;51.144;16.954;2024-02-04T03:28:13;3.0;;;3.2;;
69636;SDS011;56860;51.144;16.954;2024-02-04T03:29:13;3.0;;;3.2;;
69636;SDS011;56860;51.144;16.954;2024-02-04T03:30:14;3.0;;;3.2;;
69636;SDS011;56860;51.144;16.954;2024-02-04T03:31:18;2.9;;;3.1;;
69636;SDS011;56860;51.144;16.954;2024-02-04T03:32:13;2.9;;;3.1;;
69636;SDS011;56860;51.144;16.954;2024-02-04T03:33:13;2.9;;;3.1;;
69636;SDS011;56860;51.144;16.954;2024-02-04T03:34:13;2.9;;;4.0;;
69636;SDS011;56860;51.144;16.954;2024-02-04T03:35:13;2.9;;;4.0;;
69636;SDS011;56860;51.144;16.954;2024-02-04T03:36:15;2.9;;;4.0;;
69636;SDS011;56860;51.144;16.954;2024-02-04T03:37:13;3.0;;;3.2;;
69636;SDS011;56860;51.144;16.954;2024-02-04T03:38:13;3.0;;;3.2;;
69636;SDS011;56860;51.144;16.954;2024-02-04T03:39:13;3.0;;;3.2;;
69636;SDS011;56860;51.144;16.954;2024-02-04T03:40:13;3.1;;;3.3;;
69636;SDS011;56860;51.144;16.954;2024-02-04T03:41:13;3.1;;;3.3;;
69636;SDS011;56860;51.144;16.954;2024-02-04T03:42:13;3.1;;;3.3;;
69636;SDS011;56860;51.144;16.954;2024-02-04T03:43:13;2.8;;;3.4;;
69636;SDS011;56860;51.144;16.954;2024-02-04T03:44:13;2.8;;;3.4;;
69636;SDS011;56860;51.144;16.954;2024-02-04T03:45:13;2.8;;;3.4;;
69636;SDS011;56860;51.144;16.954;2024-02-04T03:46:14;3.0;;;3.4;;
69636;SDS011;56860;51.144;16.954;2024-02-04T03:47:13;3.0;;;3.4;;
69636;SDS011;56860;51.144;16.954;2024-02-04T03:48:13;3.0;;;3.4;;
69636;SDS011;56860;51.144;16.954;2024-02-04T03:49:14;2.9;;;3.1;;
69636;SDS011;56860;51.144;16.954;2024-02-04T03:50:13;2.9;;;3.1;;
69636;SDS011;56860;51.144;16.954;2024-02-04T03:51:14;2.9;;;3.1;;
69636;SDS011;56860;51.144;16.954;2024-02-04T03:52:13;2.6;;;2.7;;
69636;SDS011;56860;51.144;16.954;2024-02-04T03:53:13;2.6;;;2.7;;
69636;SDS011;56860;51.144;16.954;2024-02-04T03:54:13;2.6;;;2.7;;
69636;SDS011;56860;51.144;16.954;2024-02-04T03:55:13;2.6;;;2.7;;
69636;SDS011;56860;51.144;16.954;2024-02-04T03:56:13;3.0;;;3.3;;
69636;SDS011;56860;51.144;16.954;2024-02-04T03:57:13;3.0;;;3.3;;
69636;SDS011;56860;51.144;16.954;2024-02-04T03:58:13;3.0;;;3.3;;
69636;SDS011;56860;51.144;16.954;2024-02-04T03:59:13;2.8;;;3.0;;
69636;SDS011;56860;51.144;16.954;2024-02-04T04:00:13;2.8;;;3.0;;
69636;SDS011;56860;51.144;16.954;2024-02-04T04:01:13;2.8;;;3.0;;
69636;SDS011;56860;51.144;16.954;2024-02-04T04:02:13;2.8;;;4.5;;
69636;SDS011;56860;51.144;16.954;2024-02-04T04:03:13;2.8;;;4.5;;
69636;SDS011;56860;51.144;16.954;2024-02-04T04:04:13;2.8;;;4.5;;
69636;SDS011;56860;51.144;16.954;2024-02-04T04:05:13;2.8;;;3.1;;
69636;SDS011;56860;51.144;16.954;2024-02-04T04:06:13;2.8;;;3.1;;
69636;SDS011;56860;51.144;16.954;2024-02-04T04:07:13;2.8;;;3.1;;
69636;SDS011;56860;51.144;16.954;2024-02-04T04:08:13;2.8;;;5.5;;
69636;SDS011;56860;51.144;16.954;2024-02-04T04:09:13;2.8;;;5.5;;
69636;SDS011;56860;51.144;16.954;2024-02-04T04:10:13;2.8;;;5.5;;
69636;SDS011;56860;51.144;16.954;2024-02-04T04:11:13;2.9;;;5.3;;
69636;SDS011;56860;51.144;16.954;2024-02-04T04:12:13;2.9;;;5.3;;
69636;SDS011;56860;51.144;16.954;2024-02-04T04:13:13;2.9;;;5.3;;
69636;SDS011;56860;51.144;16.954;2024-02-04T04:14:13;2.7;;;3.1;;
69636;SDS011;56860;51.144;16.954;2024-02-04T04:15:13;2.7;;;3.1;;
69636;SDS011;56860;51.144;16.954;2024-02-04T04:16:13;2.7;;;3.1;;
69636;SDS011;56860;51.144;16.954;2024-02-04T04:17:13;2.8;;;5.2;;
69636;SDS011;56860;51.144;16.954;2024-02-04T04:18:13;2.8;;;5.2;;
69636;SDS011;56860;51.144;16.954;2024-02-04T04:19:13;2.8;;;5.2;;
69636;SDS011;56860;51.144;16.954;2024-02-04T04:20:14;2.9;;;4.8;;
69636;SDS011;56860;51.144;16.954;2024-02-04T04:21:13;2.9;;;4.8;;
69636;SDS011;56860;51.144;16.954;2024-02-04T04:22:13;2.9;;;4.8;;
69636;SDS011;56860;51.144;16.954;2024-02-04T04:23:13;3.0;;;4.8;;
69636;SDS011;56860;51.144;16.954;2024-02-04T04:24:13;2.9;;;4.3;;
69636;SDS011;56860;51.144;16.954;2024-02-04T04:25:13;2.9;;;4.3;;
69636;SDS011;56860;51.144;16.954;2024-02-04T04:26:13;2.9;;;4.3;;
69636;SDS011;56860;51.144;16.954;2024-02-04T04:27:13;2.9;;;4.1;;
69636;SDS011;56860;51.144;16.954;2024-02-04T04:28:13;2.9;;;4.1;;
69636;SDS011;56860;51.144;16.954;2024-02-04T04:29:13;2.9;;;4.1;;
69636;SDS011;56860;51.144;16.954;2024-02-04T04:30:13;2.8;;;3.6;;
69636;SDS011;56860;51.144;16.954;2024-02-04T04:31:13;2.8;;;3.6;;
69636;SDS011;56860;51.144;16.954;2024-02-04T04:32:13;2.8;;;3.6;;
69636;SDS011;56860;51.144;16.954;2024-02-04T04:33:13;3.0;;;4.3;;
69636;SDS011;56860;51.144;16.954;2024-02-04T04:34:13;3.0;;;4.3;;
69636;SDS011;56860;51.144;16.954;2024-02-04T04:35:13;3.0;;;4.3;;
69636;SDS011;56860;51.144;16.954;2024-02-04T04:36:13;2.9;;;3.2;;
69636;SDS011;56860;51.144;16.954;2024-02-04T04:37:13;2.9;;;3.2;;
69636;SDS011;56860;51.144;16.954;2024-02-04T04:38:13;2.9;;;3.2;;
69636;SDS011;56860;51.144;16.954;2024-02-04T04:39:13;3.1;;;6.6;;
69636;SDS011;56860;51.144;16.954;2024-02-04T04:40:13;3.1;;;6.6;;
69636;SDS011;56860;51.144;16.954;2024-02-04T04:41:13;3.1;;;6.6;;
69636;SDS011;56860;51.144;16.954;2024-02-04T04:42:14;2.8;;;3.1;;
69636;SDS011;56860;51.144;16.954;2024-02-04T04:43:13;2.8;;;3.1;;
69636;SDS011;56860;51.144;16.954;2024-02-04T04:44:13;2.8;;;3.1;;
69636;SDS011;56860;51.144;16.954;2024-02-04T04:45:13;2.9;;;3.2;;
69636;SDS011;56860;51.144;16.954;2024-02-04T04:46:13;2.9;;;3.2;;
69636;SDS011;56860;51.144;16.954;2024-02-04T04:47:15;2.9;;;3.2;;
69636;SDS011;56860;51.144;16.954;2024-02-04T04:48:13;2.7;;;4.1;;
69636;SDS011;56860;51.144;16.954;2024-02-04T04:49:13;2.7;;;4.2;;
69636;SDS011;56860;51.144;16.954;2024-02-04T04:50:13;2.7;;;4.2;;
69636;SDS011;56860;51.144;16.954;2024-02-04T04:51:14;2.7;;;4.2;;
69636;SDS011;56860;51.144;16.954;2024-02-04T04:52:13;3.1;;;4.5;;
69636;SDS011;56860;51.144;16.954;2024-02-04T04:53:13;3.1;;;4.5;;
69636;SDS011;56860;51.144;16.954;2024-02-04T04:54:13;3.1;;;4.5;;
69636;SDS011;56860;51.144;16.954;2024-02-04T04:55:13;2.9;;;3.0;;
69636;SDS011;56860;51.144;16.954;2024-02-04T04:56:13;2.9;;;3.0;;
69636;SDS011;56860;51.144;16.954;2024-02-04T04:57:14;2.9;;;3.0;;
69636;SDS011;56860;51.144;16.954;2024-02-04T04:58:14;3.1;;;5.1;;
69636;SDS011;56860;51.144;16.954;2024-02-04T04:59:14;3.1;;;5.1;;
69636;SDS011;56860;51.144;16.954;2024-02-04T05:00:14;3.1;;;5.1;;
69636;SDS011;56860;51.144;16.954;2024-02-04T05:01:13;3.2;;;3.6;;
69636;SDS011;56860;51.144;16.954;2024-02-04T05:02:13;3.2;;;3.6;;
69636;SDS011;56860;51.144;16.954;2024-02-04T05:03:14;3.2;;;3.6;;
69636;SDS011;56860;51.144;16.954;2024-02-04T05:04:14;3.3;;;5.1;;
69636;SDS011;56860;51.144;16.954;2024-02-04T05:05:13;3.3;;;5.1;;
69636;SDS011;56860;51.144;16.954;2024-02-04T05:06:13;3.3;;;5.1;;
69636;SDS011;56860;51.144;16.954;2024-02-04T05:07:13;3.1;;;4.0;;
69636;SDS011;56860;51.144;16.954;2024-02-04T05:08:14;3.1;;;4.0;;
69636;SDS011;56860;51.144;16.954;2024-02-04T05:09:14;3.1;;;4.0;;
69636;SDS011;56860;51.144;16.954;2024-02-04T05:10:13;3.5;;;3.9;;
69636;SDS011;56860;51.144;16.954;2024-02-04T05:11:13;3.5;;;3.9;;
69636;SDS011;56860;51.144;16.954;2024-02-04T05:12:13;3.5;;;3.9;;
69636;SDS011;56860;51.144;16.954;2024-02-04T05:13:13;3.2;;;3.8;;
69636;SDS011;56860;51.144;16.954;2024-02-04T05:14:13;3.2;;;3.8;;
69636;SDS011;56860;51.144;16.954;2024-02-04T05:15:13;3.2;;;3.8;;
69636;SDS011;56860;51.144;16.954;2024-02-04T05:16:13;3.4;;;4.3;;
69636;SDS011;56860;51.144;16.954;2024-02-04T05:17:14;3.4;;;4.3;;
69636;SDS011;56860;51.144;16.954;2024-02-04T05:18:13;3.4;;;4.3;;
69636;SDS011;56860;51.144;16.954;2024-02-04T05:19:13;2.9;;;3.4;;
69636;SDS011;56860;51.144;16.954;2024-02-04T05:20:13;2.9;;;3.4;;
69636;SDS011;56860;51.144;16.954;2024-02-04T05:21:14;2.9;;;3.4;;
69636;SDS011;56860;51.144;16.954;2024-02-04T05:22:13;3.3;;;4.0;;
69636;SDS011;56860;51.144;16.954;2024-02-04T05:23:13;3.2;;;4.2;;
69636;SDS011;56860;51.144;16.954;2024-02-04T05:24:13;3.2;;;4.2;;
69636;SDS011;56860;51.144;16.954;2024-02-04T05:25:13;3.3;;;5.4;;
69636;SDS011;56860;51.144;16.954;2024-02-04T05:26:13;3.5;;;5.9;;
69636;SDS011;56860;51.144;16.954;2024-02-04T05:27:13;3.5;;;5.9;;
69636;SDS011;56860;51.144;16.954;2024-02-04T05:28:13;3.5;;;5.9;;
69636;SDS011;56860;51.144;16.954;2024-02-04T05:29:13;3.3;;;4.2;;
69636;SDS011;56860;51.144;16.954;2024-02-04T05:30:14;3.3;;;4.2;;
69636;SDS011;56860;51.144;16.954;2024-02-04T05:31:13;3.3;;;4.2;;
69636;SDS011;56860;51.144;16.954;2024-02-04T05:32:13;3.2;;;4.5;;
69636;SDS011;56860;51.144;16.954;2024-02-04T05:33:14;3.2;;;4.5;;
69636;SDS011;56860;51.144;16.954;2024-02-04T05:34:13;3.2;;;4.5;;
69636;SDS011;56860;51.144;16.954;2024-02-04T05:35:13;3.1;;;4.2;;
69636;SDS011;56860;51.144;16.954;2024-02-04T05:36:13;3.1;;;4.2;;
69636;SDS011;56860;51.144;16.954;2024-02-04T05:37:13;3.1;;;4.2;;
69636;SDS011;56860;51.144;16.954;2024-02-04T05:38:13;3.2;;;4.5;;
69636;SDS011;56860;51.144;16.954;2024-02-04T05:39:14;3.2;;;4.5;;
69636;SDS011;56860;51.144;16.954;2024-02-04T05:40:13;3.2;;;4.5;;
69636;SDS011;56860;51.144;16.954;2024-02-04T05:41:13;3.1;;;5.9;;
69636;SDS011;56860;51.144;16.954;2024-02-04T05:42:13;3.1;;;5.9;;
69636;SDS011;56860;51.144;16.954;2024-02-04T05:43:13;3.1;;;5.9;;
69636;SDS011;56860;51.144;16.954;2024-02-04T05:44:13;2.8;;;3.6;;
69636;SDS011;56860;51.144;16.954;2024-02-04T05:45:13;2.8;;;3.6;;
69636;SDS011;56860;51.144;16.954;2024-02-04T05:46:13;2.8;;;3.6;;
69636;SDS011;56860;51.144;16.954;2024-02-04T05:47:13;3.2;;;3.7;;
69636;SDS011;56860;51.144;16.954;2024-02-04T05:48:13;3.2;;;3.7;;
69636;SDS011;56860;51.144;16.954;2024-02-04T05:49:13;3.2;;;3.7;;
69636;SDS011;56860;51.144;16.954;2024-02-04T05:50:13;3.4;;;5.7;;
69636;SDS011;56860;51.144;16.954;2024-02-04T05:51:13;3.3;;;6.6;;
69636;SDS011;56860;51.144;16.954;2024-02-04T05:52:14;3.3;;;6.6;;
69636;SDS011;56860;51.144;16.954;2024-02-04T05:53:13;3.1;;;4.7;;
69636;SDS011;56860;51.144;16.954;2024-02-04T05:54:13;3.2;;;4.8;;
69636;SDS011;56860;51.144;16.954;2024-02-04T05:55:13;3.2;;;4.8;;
69636;SDS011;56860;51.144;16.954;2024-02-04T05:56:13;3.5;;;3.8;;
69636;SDS011;56860;51.144;16.954;2024-02-04T05:57:13;3.5;;;5.1;;
69636;SDS011;56860;51.144;16.954;2024-02-04T05:58:13;3.5;;;5.1;;
69636;SDS011;56860;51.144;16.954;2024-02-04T05:59:14;3.5;;;5.1;;
69636;SDS011;56860;51.144;16.954;2024-02-04T06:00:14;3.0;;;5.5;;
69636;SDS011;56860;51.144;16.954;2024-02-04T06:01:14;3.0;;;5.5;;
69636;SDS011;56860;51.144;16.954;2024-02-04T06:02:13;3.0;;;5.5;;
69636;SDS011;56860;51.144;16.954;2024-02-04T06:03:13;3.5;;;4.3;;
69636;SDS011;56860;51.144;16.954;2024-02-04T06:04:13;3.5;;;4.3;;
69636;SDS011;56860;51.144;16.954;2024-02-04T06:05:13;3.5;;;4.3;;
69636;SDS011;56860;51.144;16.954;2024-02-04T06:06:14;3.5;;;6.5;;
69636;SDS011;56860;51.144;16.954;2024-02-04T06:07:13;3.5;;;6.5;;